createdAt,value
2023-04-09T00:02:10.716Z,5.68
2023-04-09T00:04:42.291Z,5.67
2023-04-09T00:07:13.839Z,5.62
2023-04-09T00:09:45.323Z,5.58
2023-04-09T00:12:16.831Z,5.58
2023-04-09T00:14:48.354Z,5.59
2023-04-09T00:17:19.914Z,5.62
2023-04-09T00:19:51.455Z,5.62
2023-04-09T00:22:22.941Z,5.56
2023-04-09T00:24:54.416Z,5.51
2023-04-09T00:27:25.898Z,5.49
2023-04-09T00:29:57.386Z,5.51
2023-04-09T00:32:28.858Z,5.52
2023-04-09T00:35:00.410Z,5.53
2023-04-09T00:37:31.901Z,5.49
2023-04-09T00:40:04.171Z,5.50
2023-04-09T00:42:37.499Z,5.53
2023-04-09T00:45:09.369Z,5.55
2023-04-09T00:47:43.077Z,5.53
2023-04-09T00:50:14.686Z,5.53
2023-04-09T00:52:46.256Z,5.50
2023-04-09T00:55:18.820Z,5.46
2023-04-09T00:57:50.299Z,5.44
2023-04-09T01:00:21.971Z,5.45
2023-04-09T01:02:55.813Z,5.44
2023-04-09T01:05:34.508Z,5.43
2023-04-09T01:08:52.166Z,5.45
2023-04-09T01:11:38.862Z,5.44
2023-04-09T01:14:35.483Z,5.41
2023-04-09T01:17:17.551Z,5.35
2023-04-09T01:20:01.749Z,5.36
2023-04-09T01:22:51.396Z,5.32
2023-04-09T01:25:53.460Z,5.29
2023-04-09T01:28:33.587Z,5.26
2023-04-09T01:31:11.827Z,5.25
2023-04-09T01:33:44.770Z,5.27
2023-04-09T01:36:17.229Z,5.26
2023-04-09T01:38:51.320Z,5.24
2023-04-09T01:41:24.960Z,5.27
2023-04-09T01:43:57.580Z,5.21
2023-04-09T01:46:30.099Z,5.26
2023-04-09T01:49:02.798Z,5.27
2023-04-09T01:51:34.880Z,5.26
2023-04-09T01:54:06.420Z,5.25
2023-04-09T01:56:46.337Z,5.26
2023-04-09T01:59:17.893Z,5.27
2023-04-09T02:02:01.303Z,5.29
2023-04-09T02:04:34.337Z,5.29
2023-04-09T02:07:27.561Z,5.28
2023-04-09T02:10:00.886Z,5.30
2023-04-09T02:12:36.339Z,5.30
2023-04-09T02:15:08.413Z,5.29
2023-04-09T02:17:40.081Z,5.26
2023-04-09T02:20:12.104Z,5.25
2023-04-09T02:22:43.622Z,5.26
2023-04-09T02:25:15.584Z,5.24
2023-04-09T02:27:47.132Z,5.13
2023-04-09T02:30:18.575Z,5.09
2023-04-09T02:32:50.159Z,5.06
2023-04-09T02:35:21.731Z,5.11
2023-04-09T02:37:53.172Z,5.08
2023-04-09T02:40:24.687Z,5.14
2023-04-09T02:42:56.208Z,5.17
2023-04-09T02:45:27.676Z,5.17
2023-04-09T02:47:59.192Z,5.13
2023-04-09T02:50:30.754Z,5.18
2023-04-09T02:53:02.317Z,5.21
2023-04-09T02:55:33.856Z,5.20
2023-04-09T02:58:05.597Z,5.20
2023-04-09T03:00:37.068Z,5.18
2023-04-09T03:03:08.873Z,5.18
2023-04-09T03:05:40.520Z,5.16
2023-04-09T03:08:12.060Z,5.09
2023-04-09T03:10:43.566Z,5.09
2023-04-09T03:13:15.388Z,5.08
2023-04-09T03:15:51.902Z,5.05
2023-04-09T03:18:23.486Z,5.01
2023-04-09T03:20:54.933Z,4.97
2023-04-09T03:23:26.481Z,4.95
2023-04-09T03:26:05.359Z,4.91
2023-04-09T03:28:36.923Z,4.93
2023-04-09T03:31:08.416Z,4.94
2023-04-09T03:33:40.152Z,4.93
2023-04-09T03:36:11.634Z,4.90
2023-04-09T03:38:43.126Z,4.93
2023-04-09T03:41:14.585Z,4.93
2023-04-09T03:43:46.035Z,4.96
2023-04-09T03:46:18.162Z,4.95
2023-04-09T03:48:49.990Z,4.97
2023-04-09T03:51:21.685Z,4.94
2023-04-09T03:53:53.171Z,4.92
2023-04-09T03:56:24.601Z,4.94
2023-04-09T03:58:56.074Z,4.95
2023-04-09T04:01:27.488Z,4.97
2023-04-09T04:03:59.068Z,4.98
2023-04-09T04:06:33.578Z,4.90
2023-04-09T04:09:05.192Z,4.88
2023-04-09T04:11:36.728Z,4.85
2023-04-09T04:14:08.247Z,4.75
2023-04-09T04:16:42.576Z,4.69
2023-04-09T04:19:14.163Z,4.65
2023-04-09T04:21:45.646Z,4.64
2023-04-09T04:24:17.169Z,4.55
2023-04-09T04:26:48.635Z,4.44
2023-04-09T04:29:20.150Z,4.42
2023-04-09T04:31:51.609Z,4.40
2023-04-09T04:34:23.195Z,4.39
2023-04-09T04:36:54.673Z,4.40
2023-04-09T04:39:26.285Z,4.40
2023-04-09T04:41:57.737Z,4.40
2023-04-09T04:44:29.459Z,4.40
2023-04-09T04:47:00.972Z,4.38
2023-04-09T04:49:32.482Z,4.34
2023-04-09T04:52:04.002Z,4.31
2023-04-09T04:54:35.556Z,4.24
2023-04-09T04:57:07.026Z,4.19
2023-04-09T04:59:39.949Z,4.18
2023-04-09T05:02:11.817Z,4.19
2023-04-09T05:04:43.395Z,4.20
2023-04-09T05:07:14.842Z,4.18
2023-04-09T05:09:46.337Z,4.05
2023-04-09T05:12:18.072Z,4.11
2023-04-09T05:14:49.648Z,4.19
2023-04-09T05:17:21.091Z,4.29
2023-04-09T05:19:53.590Z,4.36
2023-04-09T05:22:25.084Z,4.46
2023-04-09T05:24:56.546Z,4.55
2023-04-09T05:27:28.897Z,4.65
2023-04-09T05:30:01.025Z,4.70
2023-04-09T05:32:32.721Z,4.75
2023-04-09T05:35:04.738Z,4.74
2023-04-09T05:37:36.215Z,4.76
2023-04-09T05:40:08.274Z,4.78
2023-04-09T05:42:39.736Z,4.79
2023-04-09T05:45:11.442Z,4.84
2023-04-09T05:47:42.965Z,4.90
2023-04-09T05:50:14.487Z,4.92
2023-04-09T05:52:46.054Z,4.98
2023-04-09T05:55:17.513Z,4.98
2023-04-09T05:57:49.105Z,5.05
2023-04-09T06:00:21.683Z,5.13
2023-04-09T06:02:53.227Z,5.11
2023-04-09T06:05:24.780Z,5.24
2023-04-09T06:07:56.473Z,5.30
2023-04-09T06:10:27.997Z,5.37
2023-04-09T06:12:59.562Z,5.40
2023-04-09T06:15:31.354Z,5.49
2023-04-09T06:18:03.210Z,5.45
2023-04-09T06:20:34.743Z,5.56
2023-04-09T06:23:06.284Z,5.62
2023-04-09T06:25:37.803Z,5.58
2023-04-09T06:28:09.271Z,5.68
2023-04-09T06:30:41.321Z,5.68
2023-04-09T06:33:12.931Z,5.74
2023-04-09T06:35:44.432Z,5.78
2023-04-09T06:38:16.645Z,5.80
2023-04-09T06:40:48.184Z,5.84
2023-04-09T06:43:19.704Z,5.91
2023-04-09T06:45:51.404Z,5.92
2023-04-09T06:48:22.988Z,6.02
2023-04-09T06:50:54.570Z,6.04
2023-04-09T06:53:26.186Z,6.14
2023-04-09T06:55:57.699Z,6.19
2023-04-09T06:58:29.141Z,6.25
2023-04-09T07:01:01.035Z,6.24
2023-04-09T07:03:32.806Z,6.24
2023-04-09T07:06:04.498Z,6.35
2023-04-09T07:08:36.224Z,6.39
2023-04-09T07:11:07.812Z,6.43
2023-04-09T07:13:39.349Z,6.49
2023-04-09T07:16:10.957Z,6.55
2023-04-09T07:18:42.567Z,6.64
2023-04-09T07:21:14.103Z,6.67
2023-04-09T07:23:45.821Z,6.65
2023-04-09T07:26:17.457Z,6.81
2023-04-09T07:28:48.955Z,6.88
2023-04-09T07:31:20.475Z,7.02
2023-04-09T07:33:52.135Z,7.12
2023-04-09T07:36:23.898Z,7.16
2023-04-09T07:38:55.722Z,7.26
2023-04-09T07:41:27.258Z,7.33
2023-04-09T07:43:59.277Z,7.42
2023-04-09T07:46:30.813Z,7.35
2023-04-09T07:49:02.352Z,7.46
2023-04-09T07:51:33.813Z,7.49
2023-04-09T07:54:05.811Z,7.57
2023-04-09T07:56:37.348Z,7.62
2023-04-09T07:59:08.906Z,7.61
2023-04-09T08:01:40.558Z,7.70
2023-04-09T08:04:13.798Z,7.77
2023-04-09T08:06:51.071Z,7.73
2023-04-09T08:09:23.346Z,7.79
2023-04-09T08:11:54.866Z,7.83
2023-04-09T08:14:26.401Z,7.92
2023-04-09T08:16:57.831Z,8.01
2023-04-09T08:19:29.342Z,8.12
2023-04-09T08:22:01.505Z,8.24
2023-04-09T08:24:33.069Z,8.25
2023-04-09T08:27:04.577Z,8.36
2023-04-09T08:29:36.051Z,8.49
2023-04-09T08:32:08.109Z,8.67
2023-04-09T08:34:39.701Z,8.65
2023-04-09T08:37:11.261Z,8.83
2023-04-09T08:39:42.757Z,8.88
2023-04-09T08:42:15.143Z,9.17
2023-04-09T08:44:46.541Z,9.06
2023-04-09T08:47:20.576Z,9.06
2023-04-09T08:49:52.227Z,9.17
2023-04-09T08:52:33.265Z,9.45
2023-04-09T08:55:05.281Z,9.53
2023-04-09T08:57:39.759Z,9.74
2023-04-09T09:00:12.293Z,9.81
2023-04-09T09:03:03.402Z,9.67
2023-04-09T09:05:45.854Z,9.77
2023-04-09T09:08:26.755Z,9.90
2023-04-09T09:10:58.536Z,9.95
2023-04-09T09:13:30.237Z,10.06
2023-04-09T09:16:16.134Z,10.06
2023-04-09T09:18:48.283Z,10.09
2023-04-09T09:21:19.849Z,10.13
2023-04-09T09:23:51.374Z,10.25
2023-04-09T09:26:28.793Z,10.28
2023-04-09T09:29:04.143Z,10.49
2023-04-09T09:31:49.128Z,10.56
2023-04-09T09:34:22.503Z,10.49
2023-04-09T09:36:54.288Z,10.60
2023-04-09T09:39:44.293Z,10.62
2023-04-09T09:42:16.097Z,10.49
2023-04-09T09:44:48.351Z,10.47
2023-04-09T09:47:21.526Z,10.12
2023-04-09T09:49:53.160Z,10.09
2023-04-09T09:52:26.975Z,10.06
2023-04-09T09:55:05.285Z,10.32
2023-04-09T09:57:40.634Z,10.49
2023-04-09T10:00:14.117Z,10.59
2023-04-09T10:02:59.223Z,10.71
2023-04-09T10:05:31.474Z,10.79
2023-04-09T10:08:04.548Z,10.77
2023-04-09T10:10:38.191Z,11.22
2023-04-09T10:13:16.107Z,11.61
2023-04-09T10:15:48.762Z,11.68
2023-04-09T10:18:21.359Z,11.86
2023-04-09T10:20:58.780Z,12.19
2023-04-09T10:23:39.660Z,12.27
2023-04-09T10:26:11.666Z,12.53
2023-04-09T10:28:43.412Z,12.56
2023-04-09T10:31:15.070Z,12.72
2023-04-09T10:33:46.761Z,12.98
2023-04-09T10:36:19.257Z,13.13
2023-04-09T10:38:51.590Z,13.23
2023-04-09T10:41:27.908Z,13.17
2023-04-09T10:43:59.579Z,13.22
2023-04-09T10:46:36.314Z,13.29
2023-04-09T10:49:18.506Z,13.23
2023-04-09T10:52:12.028Z,13.24
2023-04-09T10:54:46.217Z,13.47
2023-04-09T10:57:22.254Z,13.56
2023-04-09T10:59:55.871Z,13.48
2023-04-09T11:02:39.971Z,13.62
2023-04-09T11:05:18.222Z,13.44
2023-04-09T11:07:57.450Z,13.47
2023-04-09T11:10:29.292Z,13.60
2023-04-09T11:13:01.379Z,13.52
2023-04-09T11:15:36.856Z,13.52
2023-04-09T11:18:09.878Z,13.38
2023-04-09T11:20:41.907Z,13.06
2023-04-09T11:23:14.210Z,13.20
2023-04-09T11:25:49.006Z,13.26
2023-04-09T11:28:21.018Z,13.58
2023-04-09T11:30:53.220Z,14.02
2023-04-09T11:33:31.416Z,14.39
2023-04-09T11:36:05.757Z,14.35
2023-04-09T11:38:38.941Z,14.08
2023-04-09T11:41:13.510Z,13.89
2023-04-09T11:43:45.357Z,13.36
2023-04-09T11:46:17.353Z,13.27
2023-04-09T11:48:49.025Z,13.17
2023-04-09T11:51:21.175Z,13.24
2023-04-09T11:53:52.914Z,12.77
2023-04-09T11:56:25.307Z,12.70
2023-04-09T11:58:57.282Z,12.52
2023-04-09T12:01:34.934Z,12.35
2023-04-09T12:04:07.919Z,12.22
2023-04-09T12:06:42.981Z,12.14
2023-04-09T12:09:14.838Z,11.86
2023-04-09T12:11:46.638Z,11.96
2023-04-09T12:14:21.462Z,11.93
2023-04-09T12:16:53.123Z,11.98
2023-04-09T12:19:28.177Z,12.07
2023-04-09T12:21:59.673Z,12.09
2023-04-09T12:24:31.222Z,12.20
2023-04-09T12:27:02.928Z,12.01
2023-04-09T12:29:34.880Z,12.17
2023-04-09T12:32:06.496Z,12.39
2023-04-09T12:34:38.070Z,12.69
2023-04-09T12:37:09.739Z,13.07
2023-04-09T12:39:41.678Z,13.32
2023-04-09T12:42:13.198Z,13.51
2023-04-09T12:44:44.759Z,14.09
2023-04-09T12:47:16.355Z,14.52
2023-04-09T12:49:50.045Z,14.94
2023-04-09T12:52:22.556Z,15.18
2023-04-09T12:54:54.050Z,14.73
2023-04-09T12:57:25.757Z,14.93
2023-04-09T12:59:57.672Z,15.17
2023-04-09T13:02:30.062Z,14.91
2023-04-09T13:05:02.465Z,14.88
2023-04-09T13:07:33.916Z,15.15
2023-04-09T13:10:06.107Z,15.51
2023-04-09T13:12:37.645Z,15.42
2023-04-09T13:15:09.447Z,14.77
2023-04-09T13:17:41.059Z,14.97
2023-04-09T13:20:12.792Z,15.35
2023-04-09T13:22:48.733Z,14.63
2023-04-09T13:25:20.436Z,14.94
2023-04-09T13:27:52.109Z,15.08
2023-04-09T13:30:23.604Z,14.94
2023-04-09T13:32:55.404Z,14.66
2023-04-09T13:35:27.182Z,14.46
2023-04-09T13:37:58.726Z,14.01
2023-04-09T13:40:30.399Z,13.56
2023-04-09T13:43:02.089Z,13.46
2023-04-09T13:45:33.673Z,13.24
2023-04-09T13:48:07.024Z,12.74
2023-04-09T13:50:38.635Z,12.82
2023-04-09T13:53:10.135Z,12.42
2023-04-09T13:55:41.641Z,12.58
2023-04-09T13:58:13.174Z,12.80
2023-04-09T14:00:44.725Z,13.21
2023-04-09T14:03:16.508Z,13.87
2023-04-09T14:05:49.122Z,14.42
2023-04-09T14:08:22.939Z,15.37
2023-04-09T14:10:54.502Z,16.31
2023-04-09T14:13:26.056Z,18.32
2023-04-09T14:15:59.922Z,21.96
2023-04-09T14:18:31.806Z,24.98
2023-04-09T14:21:03.416Z,26.97
2023-04-09T14:23:35.181Z,28.70
2023-04-09T14:26:06.988Z,28.63
2023-04-09T14:28:38.464Z,27.43
2023-04-09T14:31:10.044Z,25.16
2023-04-09T14:33:41.662Z,24.78
2023-04-09T14:36:13.269Z,23.79
2023-04-09T14:38:44.853Z,22.03
2023-04-09T14:41:16.897Z,20.97
2023-04-09T14:43:48.390Z,19.52
2023-04-09T14:46:20.311Z,18.75
2023-04-09T14:48:51.937Z,17.37
2023-04-09T14:51:23.715Z,17.09
2023-04-09T14:53:55.280Z,16.51
2023-04-09T14:56:27.108Z,15.76
2023-04-09T14:58:58.636Z,15.12
2023-04-09T15:01:32.536Z,14.97
2023-04-09T15:04:04.671Z,17.77
2023-04-09T15:06:36.310Z,21.60
2023-04-09T15:09:07.941Z,25.34
2023-04-09T15:11:40.025Z,27.48
2023-04-09T15:14:11.558Z,28.20
2023-04-09T15:16:43.153Z,26.40
2023-04-09T15:19:14.702Z,26.52
2023-04-09T15:21:46.266Z,24.01
2023-04-09T15:24:17.741Z,22.60
2023-04-09T15:26:49.820Z,23.32
2023-04-09T15:29:21.462Z,25.04
2023-04-09T15:31:53.345Z,24.25
2023-04-09T15:34:26.125Z,22.68
2023-04-09T15:36:57.702Z,21.23
2023-04-09T15:39:29.247Z,19.56
2023-04-09T15:42:01.826Z,18.24
2023-04-09T15:44:33.341Z,16.51
2023-04-09T15:47:04.835Z,17.98
2023-04-09T15:49:36.872Z,21.32
2023-04-09T15:52:08.468Z,24.50
2023-04-09T15:54:39.963Z,27.19
2023-04-09T15:57:11.734Z,29.48
2023-04-09T15:59:43.102Z,30.15
2023-04-09T16:02:14.866Z,31.11
2023-04-09T16:04:46.283Z,31.41
2023-04-09T16:07:17.944Z,30.33
2023-04-09T16:09:49.493Z,27.09
2023-04-09T16:12:21.259Z,24.77
2023-04-09T16:14:52.987Z,26.38
2023-04-09T16:17:24.937Z,24.24
2023-04-09T16:19:56.534Z,21.61
2023-04-09T16:22:28.944Z,19.73
2023-04-09T16:25:00.498Z,18.43
2023-04-09T16:27:32.108Z,17.64
2023-04-09T16:30:04.164Z,16.93
2023-04-09T16:32:35.845Z,15.98
2023-04-09T16:35:07.683Z,15.68
2023-04-09T16:37:39.198Z,15.06
2023-04-09T16:40:10.833Z,14.84
2023-04-09T16:42:42.266Z,14.32
2023-04-09T16:45:13.757Z,13.89
2023-04-09T16:47:49.651Z,13.65
2023-04-09T16:50:22.831Z,13.31
2023-04-09T16:52:54.331Z,13.09
2023-04-09T16:55:26.024Z,12.83
2023-04-09T16:57:57.533Z,12.69
2023-04-09T17:00:29.156Z,12.53
2023-04-09T17:03:00.900Z,12.34
2023-04-09T17:05:32.720Z,12.17
2023-04-09T17:08:05.973Z,12.08
2023-04-09T17:10:37.500Z,11.98
2023-04-09T17:13:09.198Z,11.74
2023-04-09T17:15:41.438Z,11.61
2023-04-09T17:18:12.887Z,11.48
2023-04-09T17:20:44.373Z,11.34
2023-04-09T17:23:16.113Z,11.28
2023-04-09T17:25:48.498Z,11.24
2023-04-09T17:28:20.089Z,11.06
2023-04-09T17:30:51.980Z,10.97
2023-04-09T17:33:23.473Z,10.87
2023-04-09T17:35:55.137Z,10.69
2023-04-09T17:38:26.990Z,10.48
2023-04-09T17:40:58.604Z,10.41
2023-04-09T17:43:30.081Z,10.33
2023-04-09T17:46:01.735Z,10.27
2023-04-09T17:48:33.308Z,10.22
2023-04-09T17:51:05.739Z,10.11
2023-04-09T17:53:37.211Z,10.03
2023-04-09T17:56:09.862Z,9.98
2023-04-09T17:58:41.364Z,9.93
2023-04-09T18:01:13.716Z,9.87
2023-04-09T18:03:48.381Z,9.74
2023-04-09T18:06:20.078Z,9.70
2023-04-09T18:08:52.432Z,9.63
2023-04-09T18:11:24.502Z,9.57
2023-04-09T18:13:56.234Z,9.47
2023-04-09T18:16:28.303Z,9.39
2023-04-09T18:18:59.895Z,9.34
2023-04-09T18:21:31.840Z,9.28
2023-04-09T18:24:04.154Z,9.18
2023-04-09T18:26:36.707Z,9.10
2023-04-09T18:29:08.562Z,8.96
2023-04-09T18:31:40.261Z,8.94
2023-04-09T18:34:11.791Z,8.89
2023-04-09T18:36:43.367Z,8.84
2023-04-09T18:39:15.197Z,8.76
2023-04-09T18:41:47.077Z,8.73
2023-04-09T18:44:18.797Z,8.68
2023-04-09T18:46:50.496Z,8.62
2023-04-09T18:49:21.997Z,8.57
2023-04-09T18:51:53.466Z,8.52
2023-04-09T18:54:26.174Z,8.45
2023-04-09T18:56:57.794Z,8.42
2023-04-09T18:59:30.010Z,8.35
2023-04-09T19:02:05.863Z,8.32
2023-04-09T19:04:40.041Z,8.24
2023-04-09T19:07:11.844Z,8.19
2023-04-09T19:09:44.484Z,8.07
2023-04-09T19:12:16.533Z,7.98
2023-04-09T19:14:48.097Z,7.96
2023-04-09T19:17:19.906Z,7.94
2023-04-09T19:19:51.542Z,7.93
2023-04-09T19:22:23.112Z,7.89
2023-04-09T19:24:54.744Z,7.83
2023-04-09T19:27:26.622Z,7.78
2023-04-09T19:30:02.299Z,7.71
2023-04-09T19:32:34.147Z,7.63
2023-04-09T19:35:07.096Z,7.51
2023-04-09T19:37:39.769Z,7.47
2023-04-09T19:40:11.531Z,7.42
2023-04-09T19:42:44.749Z,7.39
2023-04-09T19:45:16.810Z,7.37
2023-04-09T19:47:48.398Z,7.38
2023-04-09T19:50:19.910Z,7.30
2023-04-09T19:52:52.292Z,7.27
2023-04-09T19:55:24.937Z,7.22
2023-04-09T19:57:56.657Z,7.18
2023-04-09T20:00:28.832Z,7.11
2023-04-09T20:03:00.604Z,7.05
2023-04-09T20:05:32.728Z,6.99
2023-04-09T20:08:04.583Z,6.91
2023-04-09T20:10:42.780Z,6.88
2023-04-09T20:13:14.364Z,6.82
2023-04-09T20:15:45.944Z,6.76
2023-04-09T20:18:17.457Z,6.72
2023-04-09T20:20:50.566Z,6.70
2023-04-09T20:23:22.214Z,6.63
2023-04-09T20:25:54.994Z,6.55
2023-04-09T20:28:27.722Z,6.52
2023-04-09T20:31:02.987Z,6.48
2023-04-09T20:33:34.642Z,6.43
2023-04-09T20:36:16.946Z,6.31
2023-04-09T20:38:48.599Z,6.23
2023-04-09T20:41:20.218Z,6.19
2023-04-09T20:43:51.720Z,6.13
2023-04-09T20:46:23.241Z,6.11
2023-04-09T20:48:55.714Z,6.08
2023-04-09T20:51:28.212Z,6.06
2023-04-09T20:53:59.782Z,6.04
2023-04-09T20:56:32.037Z,6.06
2023-04-09T20:59:03.881Z,6.04
2023-04-09T21:01:35.844Z,6.03
2023-04-09T21:04:07.639Z,6.01
2023-04-09T21:06:40.300Z,5.97
2023-04-09T21:09:11.874Z,5.90
2023-04-09T21:11:43.367Z,5.85
2023-04-09T21:14:14.849Z,5.81
2023-04-09T21:16:46.477Z,5.80
2023-04-09T21:19:18.264Z,5.79
2023-04-09T21:21:49.962Z,5.77
2023-04-09T21:24:21.522Z,5.74
2023-04-09T21:26:53.029Z,5.70
2023-04-09T21:29:24.594Z,5.67
2023-04-09T21:31:56.258Z,5.66
2023-04-09T21:34:27.802Z,5.61
2023-04-09T21:37:01.983Z,5.57
2023-04-09T21:39:33.572Z,5.54
2023-04-09T21:42:06.357Z,5.47
2023-04-09T21:44:38.950Z,5.44
2023-04-09T21:47:12.023Z,5.42
2023-04-09T21:49:43.669Z,5.44
2023-04-09T21:52:15.245Z,5.42
2023-04-09T21:54:46.882Z,5.42
2023-04-09T21:57:18.977Z,5.39
2023-04-09T21:59:50.749Z,5.39
2023-04-09T22:02:22.413Z,5.36
2023-04-09T22:04:54.054Z,5.33
2023-04-09T22:07:26.146Z,5.29
2023-04-09T22:09:58.226Z,5.28
2023-04-09T22:12:29.775Z,5.22
2023-04-09T22:15:01.470Z,5.18
2023-04-09T22:17:34.369Z,5.15
2023-04-09T22:20:07.004Z,5.13
2023-04-09T22:22:38.587Z,5.09
2023-04-09T22:25:11.677Z,5.05
2023-04-09T22:27:43.833Z,5.00
2023-04-09T22:30:15.827Z,4.95
2023-04-09T22:32:47.679Z,4.94
2023-04-09T22:35:19.381Z,4.91
2023-04-09T22:37:50.947Z,4.84
2023-04-09T22:40:22.444Z,4.79
2023-04-09T22:42:53.890Z,4.75
2023-04-09T22:45:27.792Z,4.71
2023-04-09T22:47:59.410Z,4.69
2023-04-09T22:50:31.008Z,4.61
2023-04-09T22:53:02.591Z,4.50
2023-04-09T22:55:34.096Z,4.35
2023-04-09T22:58:05.576Z,4.31
2023-04-09T23:00:39.762Z,4.31
2023-04-09T23:03:11.462Z,4.29
2023-04-09T23:05:43.818Z,4.28
2023-04-09T23:08:15.350Z,4.26
2023-04-09T23:10:46.975Z,4.24
2023-04-09T23:13:18.495Z,4.23
2023-04-09T23:15:50.026Z,4.23
2023-04-09T23:18:22.918Z,4.22
2023-04-09T23:20:54.490Z,4.23
2023-04-09T23:23:25.981Z,4.25
2023-04-09T23:25:57.528Z,4.25
2023-04-09T23:28:29.467Z,4.21
2023-04-09T23:31:01.206Z,4.21
2023-04-09T23:33:32.822Z,4.21
2023-04-09T23:36:04.655Z,4.20
2023-04-09T23:38:36.258Z,4.20
2023-04-09T23:41:07.825Z,4.19
2023-04-09T23:43:39.551Z,4.18
2023-04-09T23:46:11.194Z,4.17
2023-04-09T23:48:42.715Z,4.11
2023-04-09T23:51:20.558Z,4.13
2023-04-09T23:53:52.346Z,4.12
2023-04-09T23:56:25.067Z,4.12
2023-04-09T23:58:56.788Z,4.12
